createdAt,value
2023-04-16T00:00:39.391Z,144.42
2023-04-16T00:01:39.478Z,142.19
2023-04-16T00:02:39.608Z,142.99
2023-04-16T00:03:39.767Z,140.26
2023-04-16T00:04:39.727Z,141.82
2023-04-16T00:05:39.730Z,142.57
2023-04-16T00:06:39.733Z,139.66
2023-04-16T00:07:39.793Z,141.85
2023-04-16T00:08:39.843Z,139.75
2023-04-16T00:09:39.917Z,138.42
2023-04-16T00:10:39.930Z,137.43
2023-04-16T00:11:40.036Z,137.29
2023-04-16T00:12:40.026Z,139.08
2023-04-16T00:13:40.161Z,140.47
2023-04-16T00:14:40.133Z,140.86
2023-04-16T00:15:40.260Z,139.13
2023-04-16T00:16:40.286Z,142.66
2023-04-16T00:17:40.333Z,142.34
2023-04-16T00:18:40.380Z,141.73
2023-04-16T00:19:40.426Z,139.21
2023-04-16T00:20:40.493Z,137.39
2023-04-16T00:21:40.550Z,140.64
2023-04-16T00:22:40.608Z,139.81
2023-04-16T00:23:40.653Z,141.61
2023-04-16T00:24:40.732Z,140.52
2023-04-16T00:25:40.833Z,140.47
2023-04-16T00:26:40.848Z,137.85
2023-04-16T00:27:40.910Z,137.23
2023-04-16T00:28:41.022Z,140.39
2023-04-16T00:29:40.990Z,140.24
2023-04-16T00:30:41.106Z,140.99
2023-04-16T00:31:41.113Z,140.93
2023-04-16T00:32:41.192Z,141.27
2023-04-16T00:33:41.255Z,140.74
2023-04-16T00:34:41.298Z,141.73
2023-04-16T00:35:41.422Z,139.65
2023-04-16T00:36:41.417Z,141.71
2023-04-16T00:37:41.451Z,140.61
2023-04-16T00:38:41.530Z,140.35
2023-04-16T00:39:41.651Z,140.96
2023-04-16T00:40:41.650Z,138.84
2023-04-16T00:41:41.766Z,138.12
2023-04-16T00:42:41.779Z,138.36
2023-04-16T00:43:41.819Z,141.90
2023-04-16T00:44:41.884Z,140.66
2023-04-16T00:45:41.998Z,139.08
2023-04-16T00:46:42.141Z,139.78
2023-04-16T00:47:42.171Z,140.51
2023-04-16T00:48:42.209Z,137.42
2023-04-16T00:49:42.221Z,141.26
2023-04-16T00:50:42.270Z,141.88
2023-04-16T00:51:42.340Z,137.21
2023-04-16T00:52:42.403Z,140.26
2023-04-16T00:53:42.457Z,142.20
2023-04-16T00:54:42.490Z,144.26
2023-04-16T00:55:42.688Z,138.79
2023-04-16T00:56:42.620Z,140.28
2023-04-16T00:57:42.686Z,141.06
2023-04-16T00:58:42.751Z,139.45
2023-04-16T00:59:42.761Z,140.18
2023-04-16T01:00:42.867Z,142.05
2023-04-16T01:01:42.937Z,139.49
2023-04-16T01:02:43.140Z,139.93
2023-04-16T01:03:43.250Z,141.40
2023-04-16T01:04:43.074Z,139.82
2023-04-16T01:05:43.149Z,137.48
2023-04-16T01:06:43.181Z,138.90
2023-04-16T01:07:43.266Z,140.98
2023-04-16T01:08:43.332Z,141.62
2023-04-16T01:09:43.390Z,136.64
2023-04-16T01:10:43.412Z,140.62
2023-04-16T01:11:43.502Z,138.86
2023-04-16T01:12:43.532Z,136.87
2023-04-16T01:13:43.633Z,136.83
2023-04-16T01:14:43.734Z,140.74
2023-04-16T01:15:43.836Z,138.99
2023-04-16T01:16:43.801Z,142.35
2023-04-16T01:17:43.886Z,140.86
2023-04-16T01:18:43.959Z,140.31
2023-04-16T01:19:43.968Z,141.72
2023-04-16T01:20:44.073Z,141.37
2023-04-16T01:21:44.120Z,141.13
2023-04-16T01:22:44.151Z,141.53
2023-04-16T01:23:44.261Z,137.54
2023-04-16T01:24:44.310Z,139.72
2023-04-16T01:25:44.348Z,139.61
2023-04-16T01:26:44.422Z,140.19
2023-04-16T01:27:44.468Z,142.63
2023-04-16T01:28:44.500Z,139.48
2023-04-16T01:29:44.580Z,141.78
2023-04-16T01:30:44.711Z,141.23
2023-04-16T01:31:44.828Z,139.54
2023-04-16T01:32:44.792Z,140.60
2023-04-16T01:33:44.789Z,140.23
2023-04-16T01:34:44.923Z,139.02
2023-04-16T01:35:44.889Z,141.11
2023-04-16T01:36:45.005Z,139.86
2023-04-16T01:37:45.028Z,143.12
2023-04-16T01:38:45.047Z,141.45
2023-04-16T01:39:45.229Z,137.75
2023-04-16T01:40:45.189Z,138.59
2023-04-16T01:41:45.241Z,139.82
2023-04-16T01:42:45.310Z,141.82
2023-04-16T01:43:45.369Z,139.31
2023-04-16T01:44:45.408Z,140.83
2023-04-16T01:45:45.469Z,139.74
2023-04-16T01:46:45.526Z,139.06
2023-04-16T01:47:45.567Z,139.10
2023-04-16T01:48:45.645Z,137.66
2023-04-16T01:49:45.782Z,140.41
2023-04-16T01:50:45.741Z,140.57
2023-04-16T01:51:45.836Z,138.47
2023-04-16T01:52:45.863Z,140.46
2023-04-16T01:53:45.935Z,138.40
2023-04-16T01:54:45.988Z,139.23
2023-04-16T01:55:46.044Z,140.63
2023-04-16T01:56:46.112Z,137.72
2023-04-16T01:57:46.149Z,137.91
2023-04-16T01:58:46.220Z,137.08
2023-04-16T01:59:46.249Z,137.30
2023-04-16T02:00:46.367Z,140.20
2023-04-16T02:01:46.430Z,136.68
2023-04-16T02:02:46.708Z,139.65
2023-04-16T02:03:46.651Z,137.06
2023-04-16T02:04:46.545Z,138.05
2023-04-16T02:05:46.637Z,140.48
2023-04-16T02:06:46.662Z,139.22
2023-04-16T02:07:46.743Z,139.15
2023-04-16T02:08:46.786Z,138.33
2023-04-16T02:09:46.820Z,138.92
2023-04-16T02:10:46.989Z,134.79
2023-04-16T02:11:46.928Z,140.22
2023-04-16T02:12:47.044Z,142.33
2023-04-16T02:13:47.113Z,138.85
2023-04-16T02:14:47.128Z,138.04
2023-04-16T02:15:47.146Z,139.20
2023-04-16T02:16:47.250Z,137.59
2023-04-16T02:17:47.287Z,139.43
2023-04-16T02:18:47.336Z,138.24
2023-04-16T02:19:47.373Z,139.25
2023-04-16T02:20:47.404Z,138.22
2023-04-16T02:21:47.494Z,139.19
2023-04-16T02:22:47.541Z,140.11
2023-04-16T02:23:47.643Z,138.18
2023-04-16T02:24:47.687Z,138.21
2023-04-16T02:25:47.763Z,137.75
2023-04-16T02:26:47.748Z,137.87
2023-04-16T02:27:47.864Z,138.15
2023-04-16T02:28:47.888Z,139.99
2023-04-16T02:29:47.955Z,138.95
2023-04-16T02:30:48.040Z,141.51
2023-04-16T02:31:48.112Z,135.40
2023-04-16T02:32:48.156Z,139.10
2023-04-16T02:33:48.159Z,136.75
2023-04-16T02:34:48.146Z,137.21
2023-04-16T02:35:48.195Z,137.89
2023-04-16T02:36:48.226Z,137.46
2023-04-16T02:37:48.275Z,137.44
2023-04-16T02:38:48.286Z,138.85
2023-04-16T02:39:48.324Z,137.66
2023-04-16T02:40:48.326Z,137.99
2023-04-16T02:41:48.351Z,139.03
2023-04-16T02:42:48.408Z,139.18
2023-04-16T02:43:48.466Z,137.86
2023-04-16T02:44:48.451Z,141.21
2023-04-16T02:45:48.452Z,138.13
2023-04-16T02:46:48.433Z,138.22
2023-04-16T02:47:48.506Z,137.18
2023-04-16T02:48:48.508Z,138.32
2023-04-16T02:49:48.485Z,141.08
2023-04-16T02:50:48.498Z,136.65
2023-04-16T02:51:48.501Z,136.50
2023-04-16T02:52:48.612Z,138.54
2023-04-16T02:53:48.552Z,133.13
2023-04-16T02:54:48.604Z,139.09
2023-04-16T02:55:48.623Z,136.10
2023-04-16T02:56:48.651Z,135.10
2023-04-16T02:57:48.685Z,135.81
2023-04-16T02:58:48.725Z,137.59
2023-04-16T02:59:48.742Z,137.07
2023-04-16T03:00:48.743Z,137.22
2023-04-16T03:01:48.813Z,137.07
2023-04-16T03:02:48.945Z,138.15
2023-04-16T03:03:48.828Z,133.84
2023-04-16T03:04:48.762Z,131.65
2023-04-16T03:05:48.805Z,134.12
2023-04-16T03:06:48.811Z,137.14
2023-04-16T03:07:48.880Z,135.75
2023-04-16T03:08:48.817Z,138.05
2023-04-16T03:09:48.833Z,140.37
2023-04-16T03:10:48.880Z,136.80
2023-04-16T03:11:48.846Z,137.80
2023-04-16T03:12:48.934Z,134.14
2023-04-16T03:13:48.928Z,139.33
2023-04-16T03:14:48.933Z,140.44
2023-04-16T03:15:49.024Z,136.34
2023-04-16T03:16:49.162Z,135.77
2023-04-16T03:17:49.131Z,137.12
2023-04-16T03:18:49.067Z,136.91
2023-04-16T03:19:49.110Z,136.27
2023-04-16T03:20:49.116Z,136.24
2023-04-16T03:21:49.142Z,136.39
2023-04-16T03:22:49.138Z,136.07
2023-04-16T03:23:49.132Z,137.23
2023-04-16T03:24:49.160Z,135.82
2023-04-16T03:25:49.225Z,134.59
2023-04-16T03:26:49.225Z,136.58
2023-04-16T03:27:49.264Z,138.57
2023-04-16T03:28:49.283Z,137.29
2023-04-16T03:29:49.281Z,135.31
2023-04-16T03:30:49.305Z,131.95
2023-04-16T03:31:49.272Z,135.26
2023-04-16T03:32:49.322Z,134.80
2023-04-16T03:33:49.351Z,135.68
2023-04-16T03:34:49.340Z,136.73
2023-04-16T03:35:49.331Z,137.98
2023-04-16T03:36:49.375Z,134.85
2023-04-16T03:37:49.333Z,132.77
2023-04-16T03:38:49.334Z,138.23
2023-04-16T03:39:49.396Z,138.26
2023-04-16T03:40:49.419Z,135.89
2023-04-16T03:41:49.435Z,134.82
2023-04-16T03:42:49.504Z,131.57
2023-04-16T03:43:49.486Z,133.93
2023-04-16T03:44:49.471Z,134.20
2023-04-16T03:45:49.490Z,135.64
2023-04-16T03:46:49.537Z,133.18
2023-04-16T03:47:49.506Z,135.22
2023-04-16T03:48:49.521Z,133.42
2023-04-16T03:49:49.536Z,131.91
2023-04-16T03:50:49.532Z,134.36
2023-04-16T03:51:49.489Z,133.86
2023-04-16T03:52:49.600Z,135.27
2023-04-16T03:53:49.487Z,132.99
2023-04-16T03:54:49.569Z,133.97
2023-04-16T03:55:49.535Z,135.88
2023-04-16T03:56:49.531Z,133.28
2023-04-16T03:57:49.532Z,133.17
2023-04-16T03:58:49.545Z,134.69
2023-04-16T03:59:49.551Z,129.92
2023-04-16T04:00:49.584Z,134.48
2023-04-16T04:01:49.556Z,134.54
2023-04-16T04:02:49.658Z,135.74
2023-04-16T04:03:49.893Z,133.64
2023-04-16T04:04:49.725Z,133.61
2023-04-16T04:05:49.524Z,133.18
2023-04-16T04:06:49.520Z,133.02
2023-04-16T04:07:49.559Z,133.82
2023-04-16T04:08:49.553Z,133.73
2023-04-16T04:09:49.568Z,130.26
2023-04-16T04:10:49.564Z,132.58
2023-04-16T04:11:49.561Z,134.94
2023-04-16T04:12:49.578Z,131.61
2023-04-16T04:13:49.576Z,136.62
2023-04-16T04:14:49.590Z,129.88
2023-04-16T04:15:49.594Z,130.45
2023-04-16T04:16:49.565Z,131.65
2023-04-16T04:17:49.638Z,134.28
2023-04-16T04:18:49.577Z,130.73
2023-04-16T04:20:00.528Z,130.25
2023-04-16T04:20:50.623Z,130.48
2023-04-16T04:21:49.550Z,130.62
2023-04-16T04:22:49.537Z,130.94
2023-04-16T04:23:49.517Z,132.98
2023-04-16T04:24:49.543Z,132.13
2023-04-16T04:25:49.583Z,134.21
2023-04-16T04:26:49.548Z,132.75
2023-04-16T04:27:49.546Z,133.37
2023-04-16T04:28:49.483Z,131.12
2023-04-16T04:29:49.492Z,133.23
2023-04-16T04:30:49.527Z,132.01
2023-04-16T04:31:49.551Z,132.82
2023-04-16T04:32:49.515Z,132.83
2023-04-16T04:33:49.530Z,134.23
2023-04-16T04:34:49.486Z,133.53
2023-04-16T04:35:49.499Z,132.03
2023-04-16T04:36:49.440Z,136.13
2023-04-16T04:37:49.474Z,131.04
2023-04-16T04:38:49.502Z,130.10
2023-04-16T04:39:49.453Z,132.61
2023-04-16T04:40:49.460Z,130.52
2023-04-16T04:41:49.418Z,131.60
2023-04-16T04:42:49.429Z,127.28
2023-04-16T04:43:49.488Z,129.75
2023-04-16T04:44:49.446Z,130.07
2023-04-16T04:45:49.700Z,133.80
2023-04-16T04:46:49.391Z,131.48
2023-04-16T04:47:49.469Z,131.06
2023-04-16T04:48:49.364Z,130.66
2023-04-16T04:49:49.414Z,129.45
2023-04-16T04:50:49.389Z,131.73
2023-04-16T04:51:49.455Z,133.92
2023-04-16T04:52:49.373Z,126.71
2023-04-16T04:53:49.427Z,127.91
2023-04-16T04:54:49.416Z,130.96
2023-04-16T04:55:53.107Z,129.54
2023-04-16T04:56:49.357Z,129.71
2023-04-16T04:57:49.336Z,129.85
2023-04-16T04:58:49.392Z,129.71
2023-04-16T04:59:49.353Z,130.19
2023-04-16T05:00:49.356Z,133.09
2023-04-16T05:01:49.439Z,132.11
2023-04-16T05:02:49.427Z,131.00
2023-04-16T05:03:49.424Z,130.21
2023-04-16T05:04:49.365Z,130.19
2023-04-16T05:05:49.278Z,129.77
2023-04-16T05:06:49.279Z,128.10
2023-04-16T05:07:49.308Z,131.73
2023-04-16T05:08:49.295Z,131.44
2023-04-16T05:09:49.262Z,126.45
2023-04-16T05:10:49.250Z,131.87
2023-04-16T05:11:49.246Z,130.33
2023-04-16T05:12:49.262Z,130.29
2023-04-16T05:13:49.223Z,134.58
2023-04-16T05:14:49.241Z,130.73
2023-04-16T05:15:49.243Z,126.98
2023-04-16T05:16:49.224Z,128.46
2023-04-16T05:17:49.233Z,128.06
2023-04-16T05:18:49.209Z,130.42
2023-04-16T05:19:49.211Z,127.61
2023-04-16T05:20:49.173Z,129.77
2023-04-16T05:21:49.193Z,130.41
2023-04-16T05:22:49.198Z,127.40
2023-04-16T05:23:49.159Z,126.98
2023-04-16T05:24:49.134Z,130.47
2023-04-16T05:25:49.130Z,129.81
2023-04-16T05:26:49.151Z,126.80
2023-04-16T05:27:49.141Z,129.14
2023-04-16T05:28:49.127Z,130.76
2023-04-16T05:29:49.129Z,131.39
2023-04-16T05:30:49.145Z,132.52
2023-04-16T05:31:49.089Z,130.44
2023-04-16T05:32:49.118Z,130.56
2023-04-16T05:33:49.152Z,128.52
2023-04-16T05:34:49.104Z,125.53
2023-04-16T05:35:49.069Z,129.62
2023-04-16T05:36:49.114Z,130.43
2023-04-16T05:37:49.085Z,127.04
2023-04-16T05:38:49.088Z,126.78
2023-04-16T05:39:49.104Z,131.43
2023-04-16T05:40:49.116Z,131.23
2023-04-16T05:41:49.059Z,132.36
2023-04-16T05:42:49.110Z,128.81
2023-04-16T05:43:49.119Z,129.51
2023-04-16T05:44:49.133Z,128.06
2023-04-16T05:45:49.194Z,126.38
2023-04-16T05:46:49.191Z,129.30
2023-04-16T05:47:49.247Z,128.21
2023-04-16T05:48:49.290Z,124.61
2023-04-16T05:49:49.250Z,128.08
2023-04-16T05:50:49.306Z,128.71
2023-04-16T05:51:50.743Z,128.43
2023-04-16T05:52:49.303Z,129.22
2023-04-16T05:53:49.328Z,130.59
2023-04-16T05:54:49.338Z,125.85
2023-04-16T05:55:49.408Z,128.72
2023-04-16T05:56:49.373Z,126.48
2023-04-16T05:57:49.421Z,127.34
2023-04-16T05:58:49.416Z,128.66
2023-04-16T05:59:49.481Z,126.78
2023-04-16T06:00:49.469Z,127.10
2023-04-16T06:01:49.531Z,128.76
2023-04-16T06:02:49.667Z,126.26
2023-04-16T06:03:49.662Z,126.13
2023-04-16T06:04:49.608Z,125.35
2023-04-16T06:05:49.610Z,128.95
2023-04-16T06:06:49.724Z,122.60
2023-04-16T06:07:49.700Z,126.95
2023-04-16T06:08:49.742Z,131.23
2023-04-16T06:09:49.754Z,128.33
2023-04-16T06:10:49.731Z,127.08
2023-04-16T06:11:49.820Z,127.29
2023-04-16T06:12:49.812Z,126.01
2023-04-16T06:13:49.840Z,125.81
2023-04-16T06:14:49.863Z,123.68
2023-04-16T06:15:49.859Z,125.15
2023-04-16T06:16:49.852Z,124.55
2023-04-16T06:17:49.958Z,124.38
2023-04-16T06:18:49.867Z,128.22
2023-04-16T06:19:49.908Z,126.00
2023-04-16T06:20:49.931Z,125.49
2023-04-16T06:21:49.983Z,124.59
2023-04-16T06:22:50.044Z,122.92
2023-04-16T06:23:50.105Z,127.89
2023-04-16T06:24:50.156Z,123.23
2023-04-16T06:25:50.212Z,123.82
2023-04-16T06:26:50.205Z,125.02
2023-04-16T06:27:50.289Z,126.35
2023-04-16T06:28:50.295Z,121.55
2023-04-16T06:29:50.373Z,122.75
2023-04-16T06:30:50.378Z,124.53
2023-04-16T06:31:50.593Z,122.93
2023-04-16T06:32:50.538Z,123.30
2023-04-16T06:33:50.481Z,125.83
2023-04-16T06:34:50.526Z,123.30
2023-04-16T06:35:50.612Z,120.73
2023-04-16T06:36:50.603Z,124.94
2023-04-16T06:37:50.645Z,125.73
2023-04-16T06:38:50.726Z,124.35
2023-04-16T06:39:50.739Z,122.32
2023-04-16T06:40:50.777Z,123.54
2023-04-16T06:41:50.839Z,122.19
2023-04-16T06:42:50.876Z,124.86
2023-04-16T06:43:50.960Z,122.51
2023-04-16T06:44:51.000Z,122.83
2023-04-16T06:45:51.076Z,121.27
2023-04-16T06:46:51.120Z,120.91
2023-04-16T06:47:51.249Z,116.24
2023-04-16T06:48:51.192Z,123.66
2023-04-16T06:49:51.252Z,121.08
2023-04-16T06:50:51.316Z,124.88
2023-04-16T06:51:51.354Z,123.84
2023-04-16T06:52:51.379Z,123.87
2023-04-16T06:53:51.465Z,120.11
2023-04-16T06:54:51.571Z,118.75
2023-04-16T06:55:51.598Z,119.58
2023-04-16T06:56:51.656Z,121.79
2023-04-16T06:57:51.708Z,119.08
2023-04-16T06:58:51.780Z,119.23
2023-04-16T06:59:51.847Z,123.53
2023-04-16T07:00:51.925Z,120.49
2023-04-16T07:01:52.028Z,116.52
2023-04-16T07:02:52.093Z,119.02
2023-04-16T07:03:52.348Z,117.58
2023-04-16T07:04:52.133Z,121.32
2023-04-16T07:05:52.242Z,116.96
2023-04-16T07:06:52.249Z,121.36
2023-04-16T07:07:52.303Z,119.71
2023-04-16T07:08:52.369Z,119.62
2023-04-16T07:09:52.472Z,117.90
2023-04-16T07:10:52.433Z,120.05
2023-04-16T07:11:52.521Z,114.46
2023-04-16T07:12:52.547Z,121.08
2023-04-16T07:13:52.642Z,118.39
2023-04-16T07:14:52.666Z,115.00
2023-04-16T07:15:52.710Z,117.08
2023-04-16T07:16:52.851Z,117.80
2023-04-16T07:17:52.895Z,118.38
2023-04-16T07:18:52.875Z,117.99
2023-04-16T07:19:52.964Z,117.16
2023-04-16T07:20:52.992Z,117.54
2023-04-16T07:21:53.072Z,119.08
2023-04-16T07:22:53.100Z,115.60
2023-04-16T07:23:53.141Z,115.37
2023-04-16T07:24:53.215Z,117.23
2023-04-16T07:25:53.300Z,112.59
2023-04-16T07:26:53.314Z,117.55
2023-04-16T07:27:53.413Z,117.78
2023-04-16T07:28:53.421Z,115.58
2023-04-16T07:29:53.467Z,116.44
2023-04-16T07:30:53.542Z,113.99
2023-04-16T07:31:53.580Z,115.13
2023-04-16T07:32:53.667Z,114.76
2023-04-16T07:33:53.711Z,116.07
2023-04-16T07:34:53.775Z,117.94
2023-04-16T07:35:53.767Z,114.85
2023-04-16T07:36:53.879Z,119.21
2023-04-16T07:37:53.897Z,112.16
2023-04-16T07:38:53.908Z,112.35
2023-04-16T07:39:55.173Z,113.70
2023-04-16T07:40:53.951Z,114.58
2023-04-16T07:41:53.929Z,113.81
2023-04-16T07:42:53.931Z,115.59
2023-04-16T07:43:53.948Z,111.29
2023-04-16T07:44:53.889Z,114.58
2023-04-16T07:45:53.915Z,114.21
2023-04-16T07:46:53.986Z,118.27
2023-04-16T07:47:53.954Z,114.45
2023-04-16T07:48:53.945Z,115.08
2023-04-16T07:49:53.892Z,116.90
2023-04-16T07:50:53.812Z,116.21
2023-04-16T07:51:53.897Z,115.43
2023-04-16T07:52:53.828Z,116.72
2023-04-16T07:53:53.856Z,112.78
2023-04-16T07:54:53.841Z,112.39
2023-04-16T07:55:53.856Z,109.48
2023-04-16T07:56:53.809Z,112.66
2023-04-16T07:57:53.763Z,111.95
2023-04-16T07:58:53.817Z,109.29
2023-04-16T07:59:53.827Z,113.18
2023-04-16T08:00:53.761Z,111.98
2023-04-16T08:01:53.797Z,110.64
2023-04-16T08:02:53.896Z,113.35
2023-04-16T08:03:53.934Z,115.48
2023-04-16T08:04:53.769Z,112.31
2023-04-16T08:05:53.768Z,112.90
2023-04-16T08:06:53.731Z,111.02
2023-04-16T08:07:53.782Z,117.03
2023-04-16T08:08:53.718Z,111.49
2023-04-16T08:09:53.725Z,112.73
2023-04-16T08:10:53.724Z,110.17
2023-04-16T08:11:53.695Z,112.17
2023-04-16T08:12:53.703Z,114.85
2023-04-16T08:13:53.723Z,115.53
2023-04-16T08:14:53.720Z,112.84
2023-04-16T08:15:53.705Z,109.46
2023-04-16T08:16:53.680Z,116.56
2023-04-16T08:17:53.716Z,113.43
2023-04-16T08:18:53.673Z,112.63
2023-04-16T08:19:53.672Z,112.48
2023-04-16T08:20:53.676Z,114.20
2023-04-16T08:21:53.618Z,113.41
2023-04-16T08:22:53.640Z,115.07
2023-04-16T08:23:53.725Z,111.95
2023-04-16T08:24:53.614Z,114.81
2023-04-16T08:25:53.596Z,112.59
2023-04-16T08:26:53.611Z,114.71
2023-04-16T08:27:53.562Z,110.94
2023-04-16T08:28:53.601Z,109.44
2023-04-16T08:29:53.559Z,111.66
2023-04-16T08:30:53.587Z,112.47
2023-04-16T08:31:53.666Z,118.04
2023-04-16T08:32:53.580Z,112.18
2023-04-16T08:33:53.563Z,111.37
2023-04-16T08:34:53.565Z,109.21
2023-04-16T08:35:53.557Z,114.99
2023-04-16T08:36:53.528Z,107.59
2023-04-16T08:37:53.544Z,108.78
2023-04-16T08:38:53.510Z,117.49
2023-04-16T08:39:53.482Z,110.02
2023-04-16T08:40:53.508Z,117.33
2023-04-16T08:41:54.529Z,111.70
2023-04-16T08:42:53.461Z,111.56
2023-04-16T08:43:53.532Z,110.85
2023-04-16T08:44:53.524Z,110.39
2023-04-16T08:45:53.498Z,110.50
2023-04-16T08:46:53.590Z,120.78
2023-04-16T08:47:53.519Z,110.67
2023-04-16T08:48:53.471Z,111.00
2023-04-16T08:49:53.468Z,116.81
2023-04-16T08:50:53.496Z,110.23
2023-04-16T08:51:53.468Z,115.26
2023-04-16T08:52:53.418Z,116.86
2023-04-16T08:53:53.425Z,114.45
2023-04-16T08:54:56.833Z,108.09
2023-04-16T08:55:53.428Z,108.41
2023-04-16T08:56:53.419Z,109.13
2023-04-16T08:57:53.357Z,110.53
2023-04-16T08:58:53.420Z,112.09
2023-04-16T08:59:53.414Z,119.89
2023-04-16T09:00:53.367Z,115.41
2023-04-16T09:01:53.472Z,115.64
2023-04-16T09:02:53.520Z,113.71
2023-04-16T09:03:53.590Z,117.02
2023-04-16T09:04:53.405Z,116.09
2023-04-16T09:05:53.350Z,115.35
2023-04-16T09:06:53.403Z,118.34
2023-04-16T09:07:53.421Z,112.41
2023-04-16T09:08:53.478Z,111.82
2023-04-16T09:09:53.298Z,116.30
2023-04-16T09:10:53.384Z,115.25
2023-04-16T09:11:53.334Z,116.62
2023-04-16T09:12:53.290Z,112.76
2023-04-16T09:13:53.302Z,112.16
2023-04-16T09:14:53.296Z,114.85
2023-04-16T09:15:53.336Z,123.04
2023-04-16T09:16:53.303Z,116.81
2023-04-16T09:17:53.294Z,117.71
2023-04-16T09:18:53.230Z,120.02
2023-04-16T09:19:53.235Z,117.50
2023-04-16T09:20:53.256Z,117.67
2023-04-16T09:21:53.262Z,118.40
2023-04-16T09:22:53.308Z,114.75
2023-04-16T09:23:53.192Z,116.50
2023-04-16T09:24:53.239Z,112.12
2023-04-16T09:25:53.216Z,118.08
2023-04-16T09:26:53.217Z,115.11
2023-04-16T09:27:53.184Z,118.59
2023-04-16T09:28:53.210Z,118.18
2023-04-16T09:29:53.162Z,114.83
2023-04-16T09:30:53.215Z,118.36
2023-04-16T09:31:53.205Z,112.63
2023-04-16T09:32:53.243Z,111.95
2023-04-16T09:33:53.124Z,115.47
2023-04-16T09:34:53.138Z,113.95
2023-04-16T09:35:53.128Z,114.25
2023-04-16T09:36:53.229Z,114.48
2023-04-16T09:37:53.160Z,117.29
2023-04-16T09:38:54.507Z,119.63
2023-04-16T09:39:53.278Z,119.07
2023-04-16T09:40:53.353Z,122.25
2023-04-16T09:41:53.395Z,117.89
2023-04-16T09:42:53.423Z,119.44
2023-04-16T09:43:53.512Z,116.07
2023-04-16T09:44:53.515Z,122.84
2023-04-16T09:45:53.818Z,117.14
2023-04-16T09:46:53.628Z,114.90
2023-04-16T09:47:53.679Z,119.58
2023-04-16T09:48:53.697Z,115.06
2023-04-16T09:49:53.799Z,115.94
2023-04-16T09:50:53.824Z,117.08
2023-04-16T09:51:53.903Z,117.59
2023-04-16T09:52:53.997Z,116.25
2023-04-16T09:53:54.027Z,118.54
2023-04-16T09:54:54.118Z,113.98
2023-04-16T09:55:54.255Z,114.37
2023-04-16T09:56:54.169Z,117.07
2023-04-16T09:57:54.275Z,120.03
2023-04-16T09:58:54.380Z,116.99
2023-04-16T09:59:54.371Z,120.16
2023-04-16T10:00:54.483Z,116.18
2023-04-16T10:02:13.923Z,113.30
2023-04-16T10:02:55.523Z,113.59
2023-04-16T10:03:54.680Z,114.20
2023-04-16T10:04:54.588Z,116.52
2023-04-16T10:05:54.479Z,118.21
2023-04-16T10:06:54.475Z,117.76
2023-04-16T10:07:54.490Z,117.59
2023-04-16T10:08:54.438Z,122.21
2023-04-16T10:09:54.436Z,121.89
2023-04-16T10:10:54.474Z,117.22
2023-04-16T10:11:54.441Z,120.94
2023-04-16T10:12:54.425Z,116.46
2023-04-16T10:13:54.431Z,120.34
2023-04-16T10:14:54.475Z,120.56
2023-04-16T10:15:54.566Z,115.26
2023-04-16T10:16:54.572Z,119.33
2023-04-16T10:17:54.644Z,118.23
2023-04-16T10:18:54.656Z,120.38
2023-04-16T10:19:54.678Z,116.82
2023-04-16T10:20:54.745Z,118.58
2023-04-16T10:21:54.782Z,120.19
2023-04-16T10:22:54.844Z,119.61
2023-04-16T10:23:54.910Z,116.07
2023-04-16T10:24:54.926Z,118.84
2023-04-16T10:25:56.968Z,117.58
2023-04-16T10:26:54.944Z,119.93
2023-04-16T10:27:54.932Z,117.31
2023-04-16T10:28:54.947Z,116.04
2023-04-16T10:29:54.945Z,118.60
2023-04-16T10:30:54.966Z,118.25
2023-04-16T10:31:54.916Z,117.25
2023-04-16T10:32:55.075Z,118.37
2023-04-16T10:33:54.867Z,119.07
2023-04-16T10:34:54.889Z,114.58
2023-04-16T10:36:05.009Z,117.32
2023-04-16T10:36:55.951Z,117.56
2023-04-16T10:37:54.883Z,117.89
2023-04-16T10:38:54.874Z,117.84
2023-04-16T10:39:54.853Z,118.40
2023-04-16T10:40:54.874Z,114.49
2023-04-16T10:41:54.818Z,115.51
2023-04-16T10:42:54.834Z,120.60
2023-04-16T10:43:54.789Z,114.56
2023-04-16T10:44:54.833Z,119.20
2023-04-16T10:45:54.899Z,112.76
2023-04-16T10:46:54.858Z,120.09
2023-04-16T10:47:54.832Z,115.11
2023-04-16T10:48:54.846Z,117.00
2023-04-16T10:49:54.868Z,113.07
2023-04-16T10:50:54.917Z,115.53
2023-04-16T10:51:54.946Z,117.53
2023-04-16T10:52:54.966Z,118.51
2023-04-16T10:53:55.086Z,116.92
2023-04-16T10:54:55.045Z,115.62
2023-04-16T10:55:55.113Z,116.01
2023-04-16T10:56:55.162Z,116.79
2023-04-16T10:57:55.165Z,114.22
2023-04-16T10:58:55.247Z,114.47
2023-04-16T10:59:55.260Z,115.41
2023-04-16T11:00:55.290Z,110.58
2023-04-16T11:01:55.383Z,114.40
2023-04-16T11:02:55.416Z,114.51
2023-04-16T11:03:55.548Z,115.42
2023-04-16T11:04:55.434Z,111.87
2023-04-16T11:05:55.489Z,112.86
2023-04-16T11:06:55.501Z,113.59
2023-04-16T11:07:55.563Z,113.94
2023-04-16T11:08:55.606Z,111.59
2023-04-16T11:09:55.566Z,114.23
2023-04-16T11:10:55.594Z,112.07
2023-04-16T11:11:55.636Z,114.21
2023-04-16T11:12:55.755Z,115.64
2023-04-16T11:13:55.699Z,115.22
2023-04-16T11:14:55.815Z,114.34
2023-04-16T11:15:55.769Z,114.17
2023-04-16T11:16:55.776Z,113.10
2023-04-16T11:17:55.842Z,110.21
2023-04-16T11:18:56.902Z,112.18
2023-04-16T11:19:55.900Z,113.49
2023-04-16T11:20:55.917Z,111.95
2023-04-16T11:21:55.907Z,112.00
2023-04-16T11:22:55.954Z,110.93
2023-04-16T11:23:55.938Z,111.91
2023-04-16T11:24:56.042Z,115.69
2023-04-16T11:25:56.038Z,115.54
2023-04-16T11:26:56.085Z,112.05
2023-04-16T11:27:56.092Z,116.80
2023-04-16T11:28:56.189Z,109.83
2023-04-16T11:29:56.119Z,114.30
2023-04-16T11:30:56.234Z,109.98
2023-04-16T11:31:56.227Z,111.39
2023-04-16T11:32:56.342Z,113.94
2023-04-16T11:33:56.287Z,106.51
2023-04-16T11:34:56.344Z,111.94
2023-04-16T11:35:56.334Z,112.21
2023-04-16T11:36:56.349Z,109.49
2023-04-16T11:37:56.383Z,112.02
2023-04-16T11:38:56.537Z,111.23
2023-04-16T11:39:56.491Z,113.08
2023-04-16T11:40:56.492Z,113.04
2023-04-16T11:41:56.617Z,111.82
2023-04-16T11:42:57.655Z,108.22
2023-04-16T11:43:56.570Z,110.50
2023-04-16T11:44:56.613Z,111.50
2023-04-16T11:45:56.608Z,110.26
2023-04-16T11:46:56.755Z,113.28
2023-04-16T11:47:56.736Z,111.03
2023-04-16T11:48:56.741Z,114.12
2023-04-16T11:49:56.752Z,112.93
2023-04-16T11:50:56.778Z,112.68
2023-04-16T11:51:56.777Z,110.78
2023-04-16T11:52:56.837Z,108.81
2023-04-16T11:53:56.836Z,112.51
2023-04-16T11:54:56.856Z,113.06
2023-04-16T11:55:56.923Z,109.04
2023-04-16T11:56:56.903Z,109.93
2023-04-16T11:57:56.917Z,111.43
2023-04-16T11:58:56.979Z,112.53
2023-04-16T12:00:02.099Z,107.74
2023-04-16T12:00:57.967Z,107.99
2023-04-16T12:01:57.003Z,108.86
2023-04-16T12:02:57.069Z,108.09
2023-04-16T12:03:57.128Z,108.25
2023-04-16T12:04:56.981Z,109.65
2023-04-16T12:05:56.918Z,111.43
2023-04-16T12:06:56.928Z,112.15
2023-04-16T12:07:56.932Z,111.04
2023-04-16T12:08:56.883Z,108.24
2023-04-16T12:09:56.953Z,111.78
2023-04-16T12:10:56.889Z,113.18
2023-04-16T12:11:56.884Z,112.82
2023-04-16T12:12:56.917Z,107.96
2023-04-16T12:13:56.866Z,111.93
2023-04-16T12:14:56.969Z,109.19
2023-04-16T12:15:56.904Z,110.10
2023-04-16T12:16:56.960Z,110.30
2023-04-16T12:17:56.912Z,113.55
2023-04-16T12:18:56.944Z,108.19
2023-04-16T12:19:56.977Z,109.64
2023-04-16T12:20:56.975Z,107.03
2023-04-16T12:21:57.026Z,108.11
2023-04-16T12:22:57.042Z,111.14
2023-04-16T12:23:57.116Z,109.34
2023-04-16T12:24:57.147Z,107.58
2023-04-16T12:25:57.101Z,108.59
2023-04-16T12:26:57.171Z,109.19
2023-04-16T12:27:57.171Z,104.74
2023-04-16T12:28:57.238Z,105.13